Time;durP1;ratioP1;P1;durP2;ratioP2;P2;SDS_P1;SDS_P2;PMS_P1;PMS_P2;Temp;Humidity;BMP_temperature;BMP_pressure;BME280_temperature;BME280_humidity;BME280_pressure;Samples;Min_cycle;Max_cycle;Signal;HPM_P1;HPM_P2
2021/04/01 00:01:32;;;;;;;87.53;47.05;;;13.70;68.60;;;;;;5093905;28;20373;-55
2021/04/01 00:03:58;;;;;;;86.60;46.50;;;13.80;68.20;;;;;;5093724;28;20055;-54
2021/04/01 00:06:24;;;;;;;82.55;45.97;;;13.80;68.00;;;;;;5093214;28;20044;-55
2021/04/01 00:08:49;;;;;;;80.57;44.45;;;13.90;67.90;;;;;;5093526;28;20419;-55
2021/04/01 00:11:16;;;;;;;93.45;48.97;;;13.90;67.40;;;;;;5092686;28;20051;-53
2021/04/01 00:13:42;;;;;;;94.90;50.65;;;14.00;66.90;;;;;;5093802;28;20047;-54
2021/04/01 00:16:08;;;;;;;92.75;50.55;;;13.90;66.70;;;;;;5077045;28;20032;-54
2021/04/01 00:18:33;;;;;;;96.18;51.45;;;13.80;66.40;;;;;;5093554;28;20547;-55
2021/04/01 00:20:59;;;;;;;111.13;59.60;;;13.80;66.20;;;;;;5093455;28;20048;-55
2021/04/01 00:23:25;;;;;;;114.22;61.72;;;13.90;65.60;;;;;;5093360;28;20077;-55
2021/04/01 00:25:51;;;;;;;108.10;57.55;;;14.00;65.40;;;;;;5093320;28;20044;-52
2021/04/01 00:28:17;;;;;;;109.22;57.50;;;14.00;65.60;;;;;;5092976;28;20039;-55
2021/04/01 00:30:43;;;;;;;98.18;53.22;;;13.90;65.60;;;;;;5093020;28;20040;-51
2021/04/01 00:33:09;;;;;;;100.53;55.75;;;13.90;66.60;;;;;;5093097;28;20036;-55
2021/04/01 00:35:35;;;;;;;116.78;61.72;;;13.80;67.60;;;;;;5092702;28;20590;-54
2021/04/01 00:38:01;;;;;;;115.43;61.60;;;13.70;67.80;;;;;;5092591;28;20037;-55
2021/04/01 00:40:27;;;;;;;110.70;60.35;;;13.70;67.70;;;;;;5092580;28;20081;-54
2021/04/01 00:42:53;;;;;;;105.70;57.20;;;13.70;67.80;;;;;;5093326;28;20052;-55
2021/04/01 00:45:20;;;;;;;101.07;55.20;;;13.60;68.70;;;;;;5092076;28;20040;-54
2021/04/01 00:47:48;;;;;;;105.82;55.42;;;13.60;69.00;;;;;;5092749;28;20060;-52
2021/04/01 00:50:17;;;;;;;98.65;55.13;;;13.50;69.70;;;;;;5092193;28;20067;-53
2021/04/01 00:52:43;;;;;;;98.65;53.47;;;13.50;69.80;;;;;;5092778;28;20058;-54
2021/04/01 00:55:10;;;;;;;90.97;51.58;;;13.50;70.20;;;;;;5092594;28;20043;-55
2021/04/01 00:57:38;;;;;;;90.88;51.50;;;13.40;70.30;;;;;;5091462;28;20415;-54
2021/04/01 01:00:09;;;;;;;94.40;51.97;;;13.40;70.10;;;;;;5091841;28;20040;-54
2021/04/01 01:02:36;;;;;;;92.38;51.50;;;13.40;70.10;;;;;;5091057;28;20040;-53
2021/04/01 01:05:02;;;;;;;93.15;50.25;;;13.40;69.90;;;;;;5091935;28;20043;-54
2021/04/01 01:07:28;;;;;;;94.28;49.60;;;13.40;70.10;;;;;;5090360;28;20071;-55
2021/04/01 01:09:53;;;;;;;84.68;48.58;;;13.30;70.70;;;;;;5091903;28;20084;-55
2021/04/01 01:12:19;;;;;;;84.30;48.80;;;13.30;70.30;;;;;;5092240;28;20055;-54
2021/04/01 01:14:45;;;;;;;87.80;48.90;;;13.30;70.20;;;;;;5074393;28;20143;-52
2021/04/01 01:17:14;;;;;;;80.63;46.78;;;13.30;69.50;;;;;;5092043;28;20131;-52
2021/04/01 01:19:41;;;;;;;87.72;47.33;;;13.30;69.40;;;;;;5092765;28;20699;-54
2021/04/01 01:22:08;;;;;;;86.55;47.88;;;13.30;69.60;;;;;;5092582;28;20047;-55
2021/04/01 01:24:35;;;;;;;87.47;47.67;;;13.30;69.60;;;;;;5092006;28;20036;-55
2021/04/01 01:27:05;;;;;;;82.15;46.25;;;13.30;69.40;;;;;;5091528;28;20399;-55
2021/04/01 01:29:32;;;;;;;85.45;48.15;;;13.30;69.30;;;;;;5092314;28;20082;-54
2021/04/01 01:31:57;;;;;;;82.07;46.60;;;13.30;69.10;;;;;;5092267;28;20382;-54
2021/04/01 01:34:23;;;;;;;83.57;45.35;;;13.30;68.60;;;;;;5090214;28;20093;-53
2021/04/01 01:36:50;;;;;;;89.15;47.20;;;13.30;68.60;;;;;;5092118;28;20047;-55
2021/04/01 01:39:16;;;;;;;79.43;46.17;;;13.40;68.70;;;;;;5091553;28;20039;-54
2021/04/01 01:41:42;;;;;;;79.53;45.47;;;13.30;69.30;;;;;;5092187;28;20047;-52
2021/04/01 01:44:08;;;;;;;79.65;45.85;;;13.30;69.50;;;;;;5091935;28;20044;-55
2021/04/01 01:46:34;;;;;;;82.55;45.25;;;13.30;69.70;;;;;;5090335;28;20050;-53
2021/04/01 01:49:00;;;;;;;85.85;47.33;;;13.30;69.50;;;;;;5092132;28;20047;-54
2021/04/01 01:51:29;;;;;;;84.00;48.33;;;13.30;69.90;;;;;;5073674;28;20063;-55
2021/04/01 01:53:55;;;;;;;81.75;46.47;;;13.30;69.60;;;;;;5091333;28;20421;-54
2021/04/01 01:56:25;;;;;;;85.00;46.72;;;13.30;69.60;;;;;;5090851;28;20058;-55
2021/04/01 01:58:52;;;;;;;86.38;46.22;;;13.30;69.60;;;;;;5092449;28;20075;-55
2021/04/01 02:01:20;;;;;;;81.35;46.75;;;13.20;69.70;;;;;;5090954;28;20060;-52
2021/04/01 02:03:46;;;;;;;82.53;46.17;;;13.20;69.70;;;;;;5091474;28;20052;-54
2021/04/01 02:06:13;;;;;;;85.13;46.40;;;13.20;69.80;;;;;;5091026;28;20194;-54
2021/04/01 02:08:38;;;;;;;82.18;45.72;;;13.20;70.20;;;;;;5091045;28;20039;-55
2021/04/01 02:11:04;;;;;;;73.32;43.35;;;13.20;70.20;;;;;;5091585;28;20036;-55
2021/04/01 02:13:30;;;;;;;77.65;43.75;;;13.20;70.60;;;;;;5090944;28;20417;-55
2021/04/01 02:15:57;;;;;;;72.68;42.97;;;13.10;71.00;;;;;;5090868;28;20040;-52
2021/04/01 02:18:27;;;;;;;75.72;42.33;;;13.00;71.70;;;;;;5090796;28;20153;-55
2021/04/01 02:20:55;;;;;;;82.18;45.40;;;13.00;72.30;;;;;;5089129;28;20036;-54
2021/04/01 02:23:24;;;;;;;86.60;45.72;;;12.90;71.60;;;;;;5090068;28;20500;-55
2021/04/01 02:25:51;;;;;;;83.10;45.85;;;12.90;71.30;;;;;;5074352;28;20036;-52
2021/04/01 02:28:20;;;;;;;88.10;47.17;;;12.80;71.20;;;;;;5084940;28;20040;-55
2021/04/01 02:30:48;;;;;;;85.28;46.30;;;12.80;71.20;;;;;;5089630;28;20523;-52
2021/04/01 02:33:15;;;;;;;84.82;45.97;;;12.80;71.20;;;;;;5091563;28;20043;-55
2021/04/01 02:35:41;;;;;;;81.85;46.00;;;12.70;71.20;;;;;;5090235;28;20044;-52
2021/04/01 02:38:07;;;;;;;86.32;47.42;;;12.70;71.30;;;;;;5090841;28;20043;-55
2021/04/01 02:40:34;;;;;;;81.47;46.05;;;12.70;71.50;;;;;;5089568;28;20396;-53
2021/04/01 02:43:00;;;;;;;82.22;46.20;;;12.70;71.80;;;;;;5073123;28;20496;-54
2021/04/01 02:45:26;;;;;;;80.60;44.10;;;12.60;71.60;;;;;;5092999;28;20097;-55
2021/04/01 02:47:52;;;;;;;80.70;46.13;;;12.60;71.70;;;;;;5090533;28;20036;-55
2021/04/01 02:50:18;;;;;;;86.18;47.67;;;12.60;71.90;;;;;;5089757;28;20032;-55
2021/04/01 02:52:44;;;;;;;89.70;46.97;;;12.50;71.30;;;;;;5091579;28;20442;-53
2021/04/01 02:55:11;;;;;;;91.20;48.70;;;12.50;71.70;;;;;;5091992;28;20040;-55
2021/04/01 02:57:38;;;;;;;90.28;49.00;;;12.50;71.00;;;;;;5091930;28;20439;-55
2021/04/01 03:00:08;;;;;;;88.63;47.92;;;12.50;70.80;;;;;;5090728;28;20040;-54
2021/04/01 03:02:35;;;;;;;93.72;50.45;;;12.50;70.70;;;;;;5093090;28;20036;-54
2021/04/01 03:05:06;;;;;;;91.30;49.30;;;12.40;70.80;;;;;;5092347;28;20032;-52
2021/04/01 03:07:34;;;;;;;97.10;51.83;;;12.40;70.80;;;;;;5090440;28;20036;-53
2021/04/01 03:10:00;;;;;;;98.28;48.85;;;12.40;71.00;;;;;;5092470;28;20089;-52
2021/04/01 03:12:27;;;;;;;89.80;48.05;;;12.30;71.30;;;;;;5091857;28;20479;-53
2021/04/01 03:14:52;;;;;;;90.90;46.80;;;12.20;71.40;;;;;;5071955;28;20041;-52
2021/04/01 03:17:18;;;;;;;96.00;51.15;;;12.10;72.00;;;;;;5089719;28;20036;-55
2021/04/01 03:19:44;;;;;;;90.93;47.85;;;12.00;72.00;;;;;;5093587;28;20040;-53
2021/04/01 03:22:10;;;;;;;94.65;50.25;;;11.90;72.10;;;;;;5089453;28;20028;-54
2021/04/01 03:24:36;;;;;;;95.95;50.25;;;11.90;72.40;;;;;;5092697;28;20040;-54
2021/04/01 03:27:03;;;;;;;100.45;51.63;;;11.80;72.50;;;;;;5090552;28;20064;-55
2021/04/01 03:29:28;;;;;;;99.75;49.55;;;11.70;72.60;;;;;;5090721;28;20039;-53
2021/04/01 03:31:54;;;;;;;96.68;50.30;;;11.70;72.90;;;;;;5090510;28;20040;-52
2021/04/01 03:34:20;;;;;;;103.95;53.47;;;11.60;73.30;;;;;;5090268;28;20032;-54
2021/04/01 03:36:45;;;;;;;98.22;49.80;;;11.60;73.30;;;;;;5089902;28;20492;-52
2021/04/01 03:39:12;;;;;;;107.70;52.65;;;11.60;73.50;;;;;;5090639;28;20040;-54
2021/04/01 03:41:38;;;;;;;110.65;53.58;;;11.60;73.60;;;;;;5090282;28;20105;-54
2021/04/01 03:44:04;;;;;;;106.10;54.03;;;11.60;73.90;;;;;;5090620;28;20040;-53
2021/04/01 03:46:30;;;;;;;104.40;52.95;;;11.60;74.10;;;;;;5089439;28;20086;-54
2021/04/01 03:48:55;;;;;;;115.22;55.00;;;11.60;74.30;;;;;;5086573;28;20028;-55
2021/04/01 03:51:21;;;;;;;114.60;55.75;;;11.50;74.30;;;;;;5090218;28;20473;-55
2021/04/01 03:53:47;;;;;;;115.88;57.63;;;11.50;74.40;;;;;;5090475;28;20131;-55
2021/04/01 03:56:12;;;;;;;122.38;56.42;;;11.60;74.50;;;;;;5089860;28;20055;-53
2021/04/01 04:12:17;;;;;;;130.32;59.03;;;11.60;74.60;;;;;;5092837;28;20058;-51
2021/04/01 04:14:51;;;;;;;134.23;61.75;;;11.60;73.70;;;;;;5093979;28;20050;-50
2021/04/01 04:17:17;;;;;;;131.02;58.95;;;11.60;73.40;;;;;;5093992;28;20040;-50
2021/04/01 04:19:42;;;;;;;133.63;59.90;;;11.60;73.60;;;;;;5094084;28;20043;-50
2021/04/01 04:22:09;;;;;;;137.48;61.85;;;11.60;73.40;;;;;;5094798;28;20466;-54
2021/04/01 04:24:36;;;;;;;141.30;63.20;;;11.50;73.60;;;;;;5094556;28;20055;-52
2021/04/01 04:27:16;;;;;;;143.45;62.42;;;11.50;73.70;;;;;;5093260;28;20508;-53
2021/04/01 04:29:41;;;;;;;134.55;59.35;;;11.50;74.10;;;;;;5094312;28;20119;-51
2021/04/01 04:32:07;;;;;;;144.52;62.22;;;11.40;74.20;;;;;;5095325;28;20072;-54
2021/04/01 04:34:33;;;;;;;143.38;62.35;;;11.40;74.20;;;;;;5091746;28;20046;-55
2021/04/01 04:36:59;;;;;;;142.07;63.38;;;11.30;74.70;;;;;;5081793;28;20528;-54
2021/04/01 04:39:24;;;;;;;138.52;63.40;;;11.30;74.40;;;;;;5082629;28;20028;-53
2021/04/01 04:41:50;;;;;;;142.38;64.95;;;11.30;74.70;;;;;;5092972;28;20044;-56
2021/04/01 04:44:15;;;;;;;134.00;62.38;;;11.30;74.70;;;;;;5092451;28;20425;-53
2021/04/01 04:46:41;;;;;;;143.68;63.83;;;11.20;74.80;;;;;;5096871;28;20106;-51
2021/04/01 04:49:07;;;;;;;141.23;62.67;;;11.20;75.00;;;;;;5093455;28;20454;-52
2021/04/01 04:51:33;;;;;;;134.55;61.85;;;11.10;75.00;;;;;;5091580;28;20047;-51
2021/04/01 04:53:58;;;;;;;150.57;65.18;;;11.10;75.20;;;;;;5094736;28;20404;-50
2021/04/01 04:56:25;;;;;;;143.95;62.17;;;11.10;75.40;;;;;;5092032;28;20551;-52
2021/04/01 04:58:57;;;;;;;143.93;63.90;;;11.00;75.60;;;;;;5092699;28;20087;-50
2021/04/01 05:09:14;;;;;;;144.00;64.72;;;10.90;76.10;;;;;;5091319;28;20373;-56
2021/04/01 05:11:39;;;;;;;143.68;63.58;;;10.80;76.10;;;;;;5091750;28;20047;-53
2021/04/01 05:14:05;;;;;;;146.10;66.78;;;10.90;76.60;;;;;;5093210;28;20054;-55
2021/04/01 05:16:31;;;;;;;155.23;67.32;;;10.80;76.30;;;;;;5094025;28;20415;-55
2021/04/01 05:18:59;;;;;;;148.25;65.45;;;10.80;76.10;;;;;;5092084;28;20507;-53
2021/04/01 05:21:35;;;;;;;145.63;66.20;;;10.80;76.30;;;;;;5094261;28;20105;-53
2021/04/01 05:24:04;;;;;;;154.65;66.65;;;10.70;76.20;;;;;;5092038;28;20058;-50
2021/04/01 05:29:12;;;;;;;147.23;67.80;;;10.70;76.50;;;;;;5093373;28;20125;-50
2021/04/01 05:31:40;;;;;;;147.20;69.00;;;10.70;76.40;;;;;;5080852;28;20291;-50
2021/04/01 05:34:06;;;;;;;152.25;66.93;;;10.60;76.60;;;;;;5092370;28;20044;-54
2021/04/01 05:36:35;;;;;;;141.95;69.07;;;10.60;76.50;;;;;;5091890;28;20039;-53
2021/04/01 05:39:01;;;;;;;142.18;66.78;;;10.70;76.40;;;;;;5092488;28;20058;-51
2021/04/01 05:41:29;;;;;;;149.23;69.10;;;10.60;76.70;;;;;;5092684;28;20036;-54
2021/04/01 05:46:37;;;;;;;142.82;69.55;;;10.70;77.10;;;;;;5092207;28;20071;-56
2021/04/01 06:05:30;;;;;;;131.20;62.72;;;10.60;76.60;;;;;;5095704;28;20040;-55
2021/04/01 06:08:09;;;;;;;136.32;67.25;;;10.60;76.90;;;;;;5090123;28;20040;-55
2021/04/01 06:10:36;;;;;;;134.43;65.95;;;10.60;76.40;;;;;;5092579;28;20492;-56
2021/04/01 06:13:15;;;;;;;134.23;65.40;;;10.60;77.00;;;;;;5090171;28;20068;-56
2021/04/01 06:15:46;;;;;;;130.63;67.28;;;10.40;77.60;;;;;;5092176;28;20048;-55
2021/04/01 06:18:15;;;;;;;131.00;64.25;;;10.40;77.90;;;;;;5093102;28;20542;-53
2021/04/01 06:20:47;;;;;;;128.98;64.40;;;10.40;78.30;;;;;;5075471;28;20494;-52
2021/04/01 06:23:29;;;;;;;136.25;66.40;;;10.30;78.60;;;;;;5081825;28;20420;-52
2021/04/01 06:25:56;;;;;;;;;;;10.20;78.90;;;;;;5100276;28;20048;-54
2021/04/01 06:28:56;;;;;;;129.70;66.47;;;10.10;79.10;;;;;;5090455;28;20225;-51
2021/04/01 06:31:26;;;;;;;125.80;61.92;;;10.20;79.10;;;;;;5082146;28;20036;-54
2021/04/01 06:33:57;;;;;;;126.32;60.28;;;10.10;79.20;;;;;;5089126;28;20042;-54
2021/04/01 06:36:27;;;;;;;106.88;54.67;;;10.00;80.20;;;;;;5088229;28;20125;-53
2021/04/01 06:38:53;;;;;;;115.45;56.60;;;10.20;79.80;;;;;;5090967;28;20062;-53
2021/04/01 06:41:26;;;;;;;99.57;46.33;;;9.90;80.70;;;;;;5090649;28;20105;-52
2021/04/01 06:44:11;;;;;;;100.68;50.33;;;10.00;81.00;;;;;;5090045;28;20048;-51
2021/04/01 06:46:45;;;;;;;87.55;44.67;;;10.00;80.30;;;;;;5089189;28;20040;-54
2021/04/01 06:49:45;;;;;;;77.25;40.20;;;9.90;79.90;;;;;;5090582;28;20044;-51
2021/04/01 06:52:19;;;;;;;86.78;41.97;;;9.90;79.80;;;;;;5088800;28;20039;-54
2021/04/01 07:03:06;;;;;;;60.45;31.63;;;9.90;78.50;;;;;;5091501;28;20082;-51
2021/04/01 07:08:28;;;;;;;46.50;20.65;;;9.90;77.20;;;;;;5090712;28;20040;-50
2021/04/01 07:11:02;;;;;;;39.65;17.60;;;9.90;76.20;;;;;;5091576;28;20395;-51
2021/04/01 07:13:35;;;;;;;35.97;17.60;;;9.90;75.40;;;;;;5090700;28;20044;-54
2021/04/01 07:22:20;;;;;;;29.88;13.40;;;10.00;74.80;;;;;;5088575;28;20028;-53
2021/04/01 07:32:36;;;;;;;19.15;5.97;;;10.20;70.70;;;;;;5089774;28;20032;-53
2021/04/01 07:48:56;;;;;;;10.52;3.10;;;10.70;67.40;;;;;;5100098;28;20074;-51
2021/04/01 07:51:45;;;;;;;15.98;4.13;;;10.80;65.80;;;;;;5097486;28;20055;-53
2021/04/01 07:54:12;;;;;;;14.18;5.15;;;10.90;66.60;;;;;;5112058;28;20040;-50
2021/04/01 07:59:27;;;;;;;14.52;4.85;;;11.10;66.60;;;;;;5094095;28;20111;-53
2021/04/01 08:04:27;;;;;;;13.23;4.03;;;11.00;67.90;;;;;;5094893;28;20140;-50
2021/04/01 08:07:11;;;;;;;16.70;4.95;;;11.10;67.90;;;;;;5093726;28;20384;-52
2021/04/01 08:09:47;;;;;;;15.35;4.35;;;11.20;68.20;;;;;;5093538;28;20552;-50
2021/04/01 08:12:31;;;;;;;16.65;4.10;;;11.30;67.40;;;;;;5095470;28;20062;-53
2021/04/01 08:15:11;;;;;;;15.98;3.28;;;11.30;67.40;;;;;;5092353;28;20576;-53
2021/04/01 08:17:48;;;;;;;15.98;3.88;;;11.40;67.20;;;;;;5058193;28;20190;-54
2021/04/01 08:20:20;;;;;;;18.52;3.40;;;11.40;67.50;;;;;;5094475;28;20036;-52
2021/04/01 08:23:02;;;;;;;18.83;3.30;;;11.40;67.20;;;;;;5092361;28;20133;-52
2021/04/01 08:25:31;;;;;;;17.80;3.05;;;11.40;67.20;;;;;;5088794;28;20032;-53
2021/04/01 08:28:46;;;;;;;19.05;3.38;;;11.40;67.90;;;;;;5093177;28;20496;-54
2021/04/01 08:36:41;;;;;;;15.70;2.40;;;11.70;67.30;;;;;;5090226;28;20051;-54
2021/04/01 08:39:07;;;;;;;14.10;3.15;;;11.80;67.80;;;;;;5092547;28;20067;-53
2021/04/01 08:41:36;;;;;;;20.77;3.75;;;11.70;67.60;;;;;;5093253;28;20085;-54
2021/04/01 08:44:38;;;;;;;17.35;3.22;;;11.90;68.10;;;;;;5093757;28;20219;-54
2021/04/01 08:47:10;;;;;;;15.17;3.00;;;11.90;68.40;;;;;;5092149;28;20188;-51
2021/04/01 08:49:55;;;;;;;22.55;4.18;;;11.90;67.40;;;;;;5104775;28;20075;-52
2021/04/01 08:52:48;;;;;;;16.92;3.42;;;11.80;68.50;;;;;;5088942;28;20067;-53
2021/04/01 08:55:16;;;;;;;21.25;3.92;;;11.90;69.30;;;;;;5093558;28;20032;-54
2021/04/01 08:58:29;;;;;;;17.73;3.75;;;12.00;67.50;;;;;;5093963;28;20484;-55
2021/04/01 09:01:13;;;;;;;16.27;3.70;;;11.70;69.00;;;;;;5070204;28;20463;-55
2021/04/01 09:03:47;;;;;;;23.90;4.40;;;11.70;71.00;;;;;;5041495;28;20059;-55
2021/04/01 09:06:18;;;;;;;10.82;2.53;;;11.60;70.90;;;;;;5081744;28;20155;-54
2021/04/01 09:08:53;;;;;;;15.68;3.50;;;11.90;68.50;;;;;;5094095;28;20055;-54
2021/04/01 09:11:32;;;;;;;18.40;3.50;;;11.90;68.90;;;;;;5077577;28;20127;-53
2021/04/01 09:13:59;;;;;;;16.05;3.83;;;11.80;70.70;;;;;;5095409;28;20072;-51
2021/04/01 09:16:30;;;;;;;20.88;3.67;;;11.80;70.80;;;;;;5093127;28;20039;-55
2021/04/01 09:19:04;;;;;;;21.30;4.38;;;11.80;70.80;;;;;;5092009;28;20089;-54
2021/04/01 09:21:32;;;;;;;15.63;4.18;;;11.70;72.20;;;;;;5093332;28;20044;-55
2021/04/01 09:24:00;;;;;;;19.63;3.58;;;11.80;71.30;;;;;;5090387;28;20126;-54
2021/04/01 09:26:26;;;;;;;19.42;3.53;;;11.70;71.10;;;;;;5091454;28;20063;-53
2021/04/01 09:29:02;;;;;;;18.83;4.15;;;11.80;71.00;;;;;;5090841;28;20036;-51
2021/04/01 09:31:35;;;;;;;14.07;3.85;;;11.70;72.10;;;;;;5089050;28;20098;-55
2021/04/01 09:34:02;;;;;;;12.32;3.53;;;11.60;71.50;;;;;;5088064;28;20044;-53
2021/04/01 09:36:39;;;;;;;17.30;3.95;;;11.60;71.40;;;;;;5088737;28;20079;-53
2021/04/01 09:41:41;;;;;;;18.90;4.10;;;11.70;71.20;;;;;;5089176;28;20032;-50
2021/04/01 09:44:09;;;;;;;13.68;3.75;;;11.70;72.30;;;;;;5092174;28;20085;-52
2021/04/01 09:47:00;;;;;;;14.48;3.63;;;11.60;71.80;;;;;;5089127;28;20089;-52
2021/04/01 09:49:31;;;;;;;13.48;3.17;;;11.40;72.90;;;;;;5090916;28;20055;-50
2021/04/01 09:51:58;;;;;;;14.48;3.50;;;11.60;72.10;;;;;;5090171;28;20054;-51
2021/04/01 09:54:28;;;;;;;13.00;2.90;;;11.60;70.80;;;;;;5092011;28;20202;-51
2021/04/01 09:56:59;;;;;;;13.88;2.88;;;11.50;71.70;;;;;;5090781;28;20494;-48
2021/04/01 10:02:28;;;;;;;11.23;2.65;;;11.50;72.70;;;;;;5091203;28;20040;-52
2021/04/01 10:05:00;;;;;;;15.60;3.33;;;11.60;72.20;;;;;;5092504;28;20462;-50
2021/04/01 10:07:27;;;;;;;;;;;11.60;71.60;;;;;;5076469;28;20038;-54
2021/04/01 10:09:57;;;;;;;12.55;2.55;;;11.70;68.30;;;;;;5092217;28;20332;-48
2021/04/01 10:12:38;;;;;;;8.02;2.28;;;11.50;69.00;;;;;;5090629;28;20040;-50
2021/04/01 10:15:10;;;;;;;15.23;2.63;;;11.70;69.10;;;;;;5085837;28;20103;-51
2021/04/01 10:17:40;;;;;;;14.05;2.45;;;11.80;68.20;;;;;;5102718;28;20040;-52
2021/04/01 10:20:09;;;;;;;11.18;2.35;;;12.00;67.60;;;;;;5086052;28;20043;-52
2021/04/01 10:22:36;;;;;;;14.40;2.70;;;11.90;68.30;;;;;;5090479;28;20457;-50
2021/04/01 10:25:20;;;;;;;10.15;2.22;;;12.10;68.20;;;;;;5069392;28;20082;-48
2021/04/01 10:28:13;;;;;;;11.27;2.38;;;12.10;68.30;;;;;;5090758;28;20071;-50
2021/04/01 10:30:39;;;;;;;8.05;2.38;;;12.20;66.80;;;;;;5084639;28;20047;-51
2021/04/01 10:33:23;;;;;;;12.35;2.40;;;12.10;67.50;;;;;;5091913;28;20044;-49
2021/04/01 10:35:54;;;;;;;13.00;2.35;;;12.20;67.60;;;;;;5083860;28;20036;-54
2021/04/01 10:38:21;;;;;;;7.70;2.00;;;12.10;68.70;;;;;;5088288;28;20036;-52
2021/04/01 10:40:49;;;;;;;7.35;1.65;;;12.10;67.60;;;;;;5089956;28;20034;-49
2021/04/01 10:43:18;;;;;;;13.00;1.90;;;12.30;67.00;;;;;;5090998;28;20407;-51
2021/04/01 10:45:46;;;;;;;9.27;1.98;;;12.40;65.50;;;;;;5090267;28;20039;-53
2021/04/01 10:48:33;;;;;;;14.98;2.53;;;12.50;65.90;;;;;;5088896;28;20032;-49
2021/04/01 10:51:03;;;;;;;6.85;1.70;;;12.50;66.20;;;;;;5086145;28;20036;-49
2021/04/01 10:53:30;;;;;;;10.05;2.10;;;12.50;64.90;;;;;;5082821;28;20028;-52
2021/04/01 10:56:08;;;;;;;10.10;1.77;;;12.60;64.70;;;;;;5082376;28;20058;-50
2021/04/01 10:58:45;;;;;;;10.25;1.88;;;12.70;62.80;;;;;;5090219;28;20035;-53
2021/04/01 11:01:11;;;;;;;9.15;2.47;;;12.60;64.00;;;;;;5088451;28;20040;-51
2021/04/01 11:03:43;;;;;;;6.88;1.60;;;12.60;65.30;;;;;;5090372;28;20040;-53
2021/04/01 11:06:11;;;;;;;7.88;1.90;;;12.70;63.30;;;;;;5088057;28;20036;-50
2021/04/01 11:08:41;;;;;;;11.13;1.75;;;12.70;62.60;;;;;;5089745;28;20036;-54
2021/04/01 11:11:07;;;;;;;8.50;1.98;;;12.80;61.50;;;;;;5089435;28;20082;-53
2021/04/01 11:13:35;;;;;;;10.80;2.00;;;12.80;59.90;;;;;;5089361;28;20040;-52
2021/04/01 11:16:07;;;;;;;12.70;1.98;;;12.80;59.20;;;;;;5088786;28;20062;-54
2021/04/01 11:18:42;;;;;;;10.50;1.80;;;12.80;60.00;;;;;;5088666;28;20039;-52
2021/04/01 11:21:11;;;;;;;12.65;2.28;;;12.80;61.30;;;;;;5106262;28;20064;-54
2021/04/01 11:23:37;;;;;;;11.02;2.38;;;12.90;61.20;;;;;;5092589;28;20043;-53
2021/04/01 11:26:04;;;;;;;8.38;1.92;;;12.90;58.30;;;;;;5074945;28;20056;-52
2021/04/01 11:28:38;;;;;;;12.70;2.38;;;12.90;58.90;;;;;;5093512;28;20078;-54
2021/04/01 11:31:09;;;;;;;13.00;2.15;;;12.90;59.50;;;;;;5092427;28;20067;-51
2021/04/01 11:33:38;;;;;;;11.18;2.58;;;13.10;58.60;;;;;;5091121;28;20468;-52
2021/04/01 11:36:12;;;;;;;10.02;1.88;;;13.10;58.50;;;;;;5092654;28;20085;-52
2021/04/01 11:39:11;;;;;;;9.82;2.10;;;13.00;58.70;;;;;;5093443;28;20043;-52
2021/04/01 11:41:28;;;;;;;5.90;1.90;;;13.20;57.60;;;;;;5092647;28;20055;-54
2021/04/01 11:43:56;;;;;;;11.07;2.10;;;13.20;58.10;;;;;;5093176;28;20466;-54
2021/04/01 11:46:27;;;;;;;12.63;2.22;;;13.20;57.30;;;;;;5092996;28;20052;-52
2021/04/01 11:48:55;;;;;;;15.77;2.10;;;13.20;57.40;;;;;;5092597;28;20044;-52
2021/04/01 11:51:27;;;;;;;10.57;2.50;;;13.10;58.40;;;;;;5091555;28;20050;-54
2021/04/01 11:53:52;;;;;;;;;;;13.10;57.60;;;;;;5087871;28;20094;-54
2021/04/01 11:56:19;;;;;;;12.18;2.10;;;13.10;56.60;;;;;;5090513;28;19920;-53
2021/04/01 11:58:46;;;;;;;10.98;1.83;;;13.10;58.00;;;;;;5092910;28;20047;-53
2021/04/01 12:01:31;;;;;;;14.60;2.40;;;13.30;56.10;;;;;;5087082;28;20506;-53
2021/04/01 12:04:01;;;;;;;8.35;1.83;;;13.30;55.60;;;;;;5092981;28;20064;-53
2021/04/01 12:06:29;;;;;;;9.52;2.05;;;13.20;55.00;;;;;;5090613;28;20052;-55
2021/04/01 12:08:56;;;;;;;11.98;2.55;;;13.00;54.00;;;;;;5091713;28;20039;-52
2021/04/01 12:11:22;;;;;;;12.85;2.35;;;13.20;55.40;;;;;;5093244;28;20424;-54
2021/04/01 12:13:48;;;;;;;10.45;2.45;;;13.20;55.50;;;;;;5091617;28;20032;-53
2021/04/01 12:16:19;;;;;;;11.77;2.40;;;13.20;55.40;;;;;;5087667;28;20048;-53
2021/04/01 12:18:46;;;;;;;11.88;2.63;;;13.20;56.30;;;;;;5087800;28;20044;-52
2021/04/01 12:21:12;;;;;;;19.58;2.97;;;13.20;56.80;;;;;;5093249;28;20066;-54
2021/04/01 12:23:51;;;;;;;12.23;3.05;;;13.10;57.60;;;;;;5093343;28;20397;-54
2021/04/01 12:26:17;;;;;;;12.45;2.80;;;13.00;56.50;;;;;;5093182;28;20090;-51
2021/04/01 12:28:53;;;;;;;13.50;3.00;;;13.10;55.90;;;;;;5091920;28;20044;-51
2021/04/01 12:31:29;;;;;;;12.88;2.75;;;13.10;56.20;;;;;;5091871;28;20772;-51
2021/04/01 12:33:54;;;;;;;13.52;2.60;;;13.20;55.50;;;;;;5087421;28;20044;-52
2021/04/01 12:36:31;;;;;;;13.85;2.78;;;13.20;55.10;;;;;;5091542;28;20040;-50
2021/04/01 12:38:57;;;;;;;13.93;2.60;;;12.90;55.20;;;;;;5092934;28;20100;-53
2021/04/01 12:41:29;;;;;;;12.10;2.50;;;12.90;55.70;;;;;;5088151;28;20423;-53
2021/04/01 12:43:55;;;;;;;;;;;12.90;54.00;;;;;;5091178;28;20043;-51
2021/04/01 12:46:22;;;;;;;15.50;3.42;;;12.90;55.30;;;;;;5092265;28;20272;-54
2021/04/01 12:48:52;;;;;;;15.38;2.90;;;12.80;56.40;;;;;;5092664;28;20543;-51
2021/04/01 12:51:21;;;;;;;14.15;3.15;;;12.80;57.00;;;;;;5090773;28;20071;-53
2021/04/01 12:54:12;;;;;;;11.73;2.50;;;12.80;56.00;;;;;;5089677;28;20377;-50
2021/04/01 12:59:18;;;;;;;12.38;2.25;;;12.70;56.10;;;;;;5091255;28;20097;-52
2021/04/01 13:01:47;;;;;;;14.30;2.50;;;12.80;57.00;;;;;;5090109;28;20369;-53
2021/04/01 13:04:15;;;;;;;13.88;2.92;;;12.90;56.00;;;;;;5087113;28;20138;-51
2021/04/01 13:06:47;;;;;;;13.13;2.63;;;12.90;54.80;;;;;;5088254;28;20044;-51
2021/04/01 13:11:54;;;;;;;14.02;2.83;;;12.90;56.20;;;;;;5090150;28;20032;-50
2021/04/01 13:14:21;;;;;;;13.90;2.70;;;12.70;56.20;;;;;;5091166;28;20048;-53
2021/04/01 13:16:47;;;;;;;17.00;3.13;;;12.80;55.90;;;;;;5090257;28;20036;-51
2021/04/01 13:19:13;;;;;;;11.10;2.58;;;12.80;54.60;;;;;;5092344;28;20127;-53
2021/04/01 13:24:28;;;;;;;12.25;2.40;;;12.70;55.40;;;;;;5087266;28;20067;-54
2021/04/01 13:26:55;;;;;;;11.13;3.08;;;12.80;53.30;;;;;;5086155;28;20036;-50
2021/04/01 13:29:23;;;;;;;15.77;2.83;;;12.70;54.00;;;;;;5091365;28;20424;-50
2021/04/01 13:31:51;;;;;;;13.85;2.75;;;12.90;53.40;;;;;;5091475;28;20044;-51
2021/04/01 13:36:49;;;;;;;11.70;2.50;;;12.70;54.70;;;;;;5086904;28;20040;-54
2021/04/01 13:39:23;;;;;;;12.85;2.58;;;12.70;51.40;;;;;;5087103;28;20043;-50
2021/04/01 13:44:16;;;;;;;12.73;2.58;;;12.60;50.80;;;;;;5088967;28;20064;-54
2021/04/01 13:46:43;;;;;;;14.25;2.83;;;12.40;51.30;;;;;;5089213;28;20101;-54
2021/04/01 13:49:16;;;;;;;14.23;3.00;;;12.40;52.50;;;;;;5088890;28;20040;-52
2021/04/01 13:51:42;;;;;;;9.57;2.15;;;12.40;52.40;;;;;;5089149;28;20066;-53
2021/04/01 13:56:54;;;;;;;13.77;3.20;;;12.20;53.80;;;;;;5088339;28;20044;-52
2021/04/01 13:59:28;;;;;;;11.70;2.70;;;12.10;54.80;;;;;;5090544;28;20036;-53
2021/04/01 14:10:18;;;;;;;14.20;3.45;;;12.20;55.80;;;;;;5095212;28;20043;-51
2021/04/01 14:12:48;;;;;;;15.23;3.60;;;12.20;56.80;;;;;;5086774;28;20040;-53
2021/04/01 14:15:14;;;;;;;12.63;2.92;;;12.20;55.50;;;;;;5090208;28;20032;-54
2021/04/01 14:17:41;;;;;;;12.23;3.38;;;12.10;55.60;;;;;;5087546;28;20048;-53
2021/04/01 14:20:11;;;;;;;15.90;3.53;;;12.10;54.80;;;;;;5089057;28;20040;-51
2021/04/01 14:22:40;;;;;;;12.02;3.28;;;12.00;56.00;;;;;;5088344;28;20032;-54
2021/04/01 14:25:15;;;;;;;9.68;2.50;;;12.10;55.10;;;;;;5086898;28;20040;-51
2021/04/01 14:27:46;;;;;;;14.25;3.35;;;12.10;55.50;;;;;;5087624;28;20052;-54
2021/04/01 14:30:16;;;;;;;7.32;2.45;;;11.90;57.80;;;;;;5087253;28;20427;-50
2021/04/01 14:32:43;;;;;;;11.88;2.55;;;12.00;58.50;;;;;;5087633;28;20126;-54
2021/04/01 14:35:10;;;;;;;9.40;2.60;;;11.90;59.20;;;;;;5088309;28;20036;-54
2021/04/01 14:37:52;;;;;;;10.48;2.42;;;11.80;60.00;;;;;;5083522;28;20504;-53
2021/04/01 14:40:20;;;;;;;12.10;2.80;;;11.80;60.20;;;;;;5090590;28;20036;-52
2021/04/01 14:42:48;;;;;;;10.73;2.83;;;11.80;59.90;;;;;;5089388;28;20070;-54
2021/04/01 14:45:15;;;;;;;8.32;2.70;;;11.80;59.90;;;;;;5091452;28;20131;-53
2021/04/01 14:47:41;;;;;;;7.78;2.28;;;11.70;59.30;;;;;;5068248;28;20451;-55